sensor_id;sensor_type;location;lat;lon;timestamp;P1;durP1;ratioP1;P2;durP2;ratioP2
75499;SDS011;64076;51.466;7.260;2023-05-17T00:02:05;3.92;;;1.70;;
75499;SDS011;64076;51.466;7.260;2023-05-17T00:04:30;4.20;;;1.70;;
75499;SDS011;64076;51.466;7.260;2023-05-17T00:06:57;3.50;;;2.10;;
75499;SDS011;64076;51.466;7.260;2023-05-17T00:09:22;3.97;;;2.07;;
75499;SDS011;64076;51.466;7.260;2023-05-17T00:11:48;3.97;;;2.08;;
75499;SDS011;64076;51.466;7.260;2023-05-17T00:14:13;3.77;;;1.90;;
75499;SDS011;64076;51.466;7.260;2023-05-17T00:16:40;3.58;;;2.00;;
75499;SDS011;64076;51.466;7.260;2023-05-17T00:19:05;4.00;;;2.00;;
75499;SDS011;64076;51.466;7.260;2023-05-17T00:21:33;4.15;;;2.10;;
75499;SDS011;64076;51.466;7.260;2023-05-17T00:23:59;4.10;;;1.77;;
75499;SDS011;64076;51.466;7.260;2023-05-17T00:26:24;3.53;;;2.00;;
75499;SDS011;64076;51.466;7.260;2023-05-17T00:28:50;4.30;;;1.97;;
75499;SDS011;64076;51.466;7.260;2023-05-17T00:31:15;3.15;;;1.90;;
75499;SDS011;64076;51.466;7.260;2023-05-17T00:33:41;4.20;;;2.00;;
75499;SDS011;64076;51.466;7.260;2023-05-17T00:36:06;3.80;;;1.90;;
75499;SDS011;64076;51.466;7.260;2023-05-17T00:38:32;3.25;;;1.95;;
75499;SDS011;64076;51.466;7.260;2023-05-17T00:40:57;3.93;;;1.93;;
75499;SDS011;64076;51.466;7.260;2023-05-17T00:43:23;3.13;;;1.70;;
75499;SDS011;64076;51.466;7.260;2023-05-17T00:45:50;4.13;;;2.15;;
75499;SDS011;64076;51.466;7.260;2023-05-17T00:48:15;3.38;;;2.00;;
75499;SDS011;64076;51.466;7.260;2023-05-17T00:50:42;3.85;;;2.10;;
75499;SDS011;64076;51.466;7.260;2023-05-17T00:53:08;3.60;;;2.00;;
75499;SDS011;64076;51.466;7.260;2023-05-17T00:55:39;3.80;;;2.10;;
75499;SDS011;64076;51.466;7.260;2023-05-17T00:58:09;2.78;;;1.95;;
75499;SDS011;64076;51.466;7.260;2023-05-17T01:00:38;3.40;;;2.08;;
75499;SDS011;64076;51.466;7.260;2023-05-17T01:03:03;3.17;;;1.90;;
75499;SDS011;64076;51.466;7.260;2023-05-17T01:05:29;3.63;;;2.08;;
75499;SDS011;64076;51.466;7.260;2023-05-17T01:07:55;4.37;;;2.07;;
75499;SDS011;64076;51.466;7.260;2023-05-17T01:10:21;4.43;;;2.05;;
75499;SDS011;64076;51.466;7.260;2023-05-17T01:13:08;4.43;;;2.23;;
75499;SDS011;64076;51.466;7.260;2023-05-17T01:15:42;4.15;;;2.10;;
75499;SDS011;64076;51.466;7.260;2023-05-17T01:18:33;3.83;;;2.30;;
75499;SDS011;64076;51.466;7.260;2023-05-17T01:21:16;4.82;;;2.10;;
75499;SDS011;64076;51.466;7.260;2023-05-17T01:27:19;4.20;;;2.03;;
75499;SDS011;64076;51.466;7.260;2023-05-17T01:29:45;4.50;;;2.17;;
75499;SDS011;64076;51.466;7.260;2023-05-17T01:32:13;3.70;;;2.20;;
75499;SDS011;64076;51.466;7.260;2023-05-17T01:34:40;3.83;;;2.08;;
75499;SDS011;64076;51.466;7.260;2023-05-17T01:37:05;4.07;;;2.30;;
75499;SDS011;64076;51.466;7.260;2023-05-17T01:39:31;5.32;;;2.08;;
75499;SDS011;64076;51.466;7.260;2023-05-17T01:44:51;3.40;;;2.00;;
75499;SDS011;64076;51.466;7.260;2023-05-17T01:47:42;3.25;;;2.00;;
75499;SDS011;64076;51.466;7.260;2023-05-17T01:50:11;3.20;;;2.13;;
75499;SDS011;64076;51.466;7.260;2023-05-17T01:52:49;4.03;;;2.53;;
75499;SDS011;64076;51.466;7.260;2023-05-17T01:58:02;4.70;;;1.90;;
75499;SDS011;64076;51.466;7.260;2023-05-17T02:00:31;3.90;;;2.40;;
75499;SDS011;64076;51.466;7.260;2023-05-17T02:02:56;3.77;;;2.13;;
75499;SDS011;64076;51.466;7.260;2023-05-17T02:05:22;4.70;;;2.80;;
75499;SDS011;64076;51.466;7.260;2023-05-17T02:07:47;6.05;;;2.50;;
75499;SDS011;64076;51.466;7.260;2023-05-17T02:10:13;4.37;;;2.10;;
75499;SDS011;64076;51.466;7.260;2023-05-17T02:12:39;3.70;;;2.47;;
75499;SDS011;64076;51.466;7.260;2023-05-17T02:15:04;3.47;;;2.05;;
75499;SDS011;64076;51.466;7.260;2023-05-17T02:17:32;3.83;;;2.40;;
75499;SDS011;64076;51.466;7.260;2023-05-17T02:19:57;3.47;;;2.17;;
75499;SDS011;64076;51.466;7.260;2023-05-17T02:22:23;3.70;;;2.40;;
75499;SDS011;64076;51.466;7.260;2023-05-17T02:24:48;3.83;;;2.20;;
75499;SDS011;64076;51.466;7.260;2023-05-17T02:27:14;4.90;;;2.60;;
75499;SDS011;64076;51.466;7.260;2023-05-17T02:29:39;4.83;;;2.53;;
75499;SDS011;64076;51.466;7.260;2023-05-17T02:32:05;4.80;;;2.42;;
75499;SDS011;64076;51.466;7.260;2023-05-17T02:34:31;3.50;;;2.50;;
75499;SDS011;64076;51.466;7.260;2023-05-17T02:36:56;3.88;;;2.67;;
75499;SDS011;64076;51.466;7.260;2023-05-17T02:39:22;4.87;;;2.40;;
75499;SDS011;64076;51.466;7.260;2023-05-17T02:41:47;5.57;;;2.53;;
75499;SDS011;64076;51.466;7.260;2023-05-17T02:44:13;4.95;;;2.60;;
75499;SDS011;64076;51.466;7.260;2023-05-17T02:46:38;5.07;;;2.80;;
75499;SDS011;64076;51.466;7.260;2023-05-17T02:49:04;4.87;;;2.70;;
75499;SDS011;64076;51.466;7.260;2023-05-17T02:51:29;4.65;;;2.53;;
75499;SDS011;64076;51.466;7.260;2023-05-17T02:53:55;5.13;;;2.77;;
75499;SDS011;64076;51.466;7.260;2023-05-17T02:56:21;4.63;;;2.80;;
75499;SDS011;64076;51.466;7.260;2023-05-17T02:58:46;4.57;;;2.53;;
75499;SDS011;64076;51.466;7.260;2023-05-17T03:01:12;5.03;;;2.53;;
75499;SDS011;64076;51.466;7.260;2023-05-17T03:03:37;4.10;;;2.67;;
75499;SDS011;64076;51.466;7.260;2023-05-17T03:06:03;5.03;;;2.60;;
75499;SDS011;64076;51.466;7.260;2023-05-17T03:08:29;4.15;;;2.67;;
75499;SDS011;64076;51.466;7.260;2023-05-17T03:10:55;6.33;;;3.40;;
75499;SDS011;64076;51.466;7.260;2023-05-17T03:13:21;3.38;;;2.60;;
75499;SDS011;64076;51.466;7.260;2023-05-17T03:15:46;4.70;;;3.00;;
75499;SDS011;64076;51.466;7.260;2023-05-17T03:18:12;4.55;;;3.10;;
75499;SDS011;64076;51.466;7.260;2023-05-17T03:20:37;6.00;;;3.00;;
75499;SDS011;64076;51.466;7.260;2023-05-17T03:23:03;4.93;;;2.90;;
75499;SDS011;64076;51.466;7.260;2023-05-17T03:25:29;5.00;;;2.83;;
75499;SDS011;64076;51.466;7.260;2023-05-17T03:27:54;6.50;;;3.20;;
75499;SDS011;64076;51.466;7.260;2023-05-17T03:30:20;6.03;;;2.75;;
75499;SDS011;64076;51.466;7.260;2023-05-17T03:32:45;4.23;;;2.97;;
75499;SDS011;64076;51.466;7.260;2023-05-17T03:35:11;5.87;;;3.10;;
75499;SDS011;64076;51.466;7.260;2023-05-17T03:37:36;6.88;;;3.58;;
75499;SDS011;64076;51.466;7.260;2023-05-17T03:40:02;4.60;;;2.90;;
75499;SDS011;64076;51.466;7.260;2023-05-17T03:42:27;6.87;;;3.13;;
75499;SDS011;64076;51.466;7.260;2023-05-17T03:44:53;4.65;;;3.28;;
75499;SDS011;64076;51.466;7.260;2023-05-17T03:47:19;5.97;;;2.93;;
75499;SDS011;64076;51.466;7.260;2023-05-17T03:49:47;8.27;;;3.55;;
75499;SDS011;64076;51.466;7.260;2023-05-17T03:52:13;7.13;;;3.78;;
75499;SDS011;64076;51.466;7.260;2023-05-17T03:54:38;6.03;;;3.10;;
75499;SDS011;64076;51.466;7.260;2023-05-17T03:57:04;4.93;;;3.20;;
75499;SDS011;64076;51.466;7.260;2023-05-17T03:59:30;5.80;;;3.63;;
75499;SDS011;64076;51.466;7.260;2023-05-17T04:01:55;6.30;;;3.40;;
75499;SDS011;64076;51.466;7.260;2023-05-17T04:04:21;6.40;;;3.70;;
75499;SDS011;64076;51.466;7.260;2023-05-17T04:06:46;5.88;;;3.80;;
75499;SDS011;64076;51.466;7.260;2023-05-17T04:09:12;6.43;;;3.70;;
75499;SDS011;64076;51.466;7.260;2023-05-17T04:11:39;6.72;;;3.58;;
75499;SDS011;64076;51.466;7.260;2023-05-17T04:14:05;7.38;;;3.88;;
75499;SDS011;64076;51.466;7.260;2023-05-17T04:16:31;6.43;;;3.63;;
75499;SDS011;64076;51.466;7.260;2023-05-17T04:18:58;4.97;;;3.53;;
75499;SDS011;64076;51.466;7.260;2023-05-17T04:21:24;7.13;;;3.90;;
75499;SDS011;64076;51.466;7.260;2023-05-17T04:23:50;8.00;;;3.90;;
75499;SDS011;64076;51.466;7.260;2023-05-17T04:26:15;6.73;;;3.87;;
75499;SDS011;64076;51.466;7.260;2023-05-17T04:28:41;5.68;;;3.80;;
75499;SDS011;64076;51.466;7.260;2023-05-17T04:31:07;7.90;;;3.70;;
75499;SDS011;64076;51.466;7.260;2023-05-17T04:33:32;6.85;;;3.70;;
75499;SDS011;64076;51.466;7.260;2023-05-17T04:35:58;7.40;;;3.70;;
75499;SDS011;64076;51.466;7.260;2023-05-17T04:38:24;9.07;;;4.00;;
75499;SDS011;64076;51.466;7.260;2023-05-17T04:40:49;7.43;;;3.80;;
75499;SDS011;64076;51.466;7.260;2023-05-17T04:43:15;7.67;;;4.13;;
75499;SDS011;64076;51.466;7.260;2023-05-17T04:45:40;7.65;;;4.20;;
75499;SDS011;64076;51.466;7.260;2023-05-17T04:48:06;7.10;;;3.60;;
75499;SDS011;64076;51.466;7.260;2023-05-17T04:50:32;6.70;;;4.05;;
75499;SDS011;64076;51.466;7.260;2023-05-17T04:52:58;8.00;;;4.27;;
75499;SDS011;64076;51.466;7.260;2023-05-17T04:55:23;7.73;;;4.27;;
75499;SDS011;64076;51.466;7.260;2023-05-17T04:57:49;7.07;;;4.18;;
75499;SDS011;64076;51.466;7.260;2023-05-17T05:00:15;6.77;;;3.70;;
75499;SDS011;64076;51.466;7.260;2023-05-17T05:02:41;6.05;;;3.95;;
75499;SDS011;64076;51.466;7.260;2023-05-17T05:05:06;9.03;;;4.23;;
75499;SDS011;64076;51.466;7.260;2023-05-17T05:07:33;7.13;;;4.25;;
75499;SDS011;64076;51.466;7.260;2023-05-17T05:09:59;7.05;;;4.50;;
75499;SDS011;64076;51.466;7.260;2023-05-17T05:12:25;5.93;;;4.00;;
75499;SDS011;64076;51.466;7.260;2023-05-17T05:14:51;7.03;;;4.32;;
75499;SDS011;64076;51.466;7.260;2023-05-17T05:17:16;7.00;;;3.73;;
75499;SDS011;64076;51.466;7.260;2023-05-17T05:19:42;6.60;;;3.92;;
75499;SDS011;64076;51.466;7.260;2023-05-17T05:22:07;6.10;;;3.37;;
75499;SDS011;64076;51.466;7.260;2023-05-17T05:24:33;5.30;;;2.83;;
75499;SDS011;64076;51.466;7.260;2023-05-17T05:26:58;5.93;;;3.25;;
75499;SDS011;64076;51.466;7.260;2023-05-17T05:29:24;4.97;;;2.83;;
75499;SDS011;64076;51.466;7.260;2023-05-17T05:31:49;4.87;;;2.63;;
75499;SDS011;64076;51.466;7.260;2023-05-17T05:34:15;5.65;;;2.90;;
75499;SDS011;64076;51.466;7.260;2023-05-17T05:36:40;5.00;;;2.53;;
75499;SDS011;64076;51.466;7.260;2023-05-17T05:39:06;4.93;;;2.50;;
75499;SDS011;64076;51.466;7.260;2023-05-17T05:41:32;4.40;;;2.87;;
75499;SDS011;64076;51.466;7.260;2023-05-17T05:43:57;3.37;;;2.30;;
75499;SDS011;64076;51.466;7.260;2023-05-17T05:46:24;26.02;;;3.25;;
75499;SDS011;64076;51.466;7.260;2023-05-17T05:48:50;21.55;;;2.83;;
75499;SDS011;64076;51.466;7.260;2023-05-17T05:51:15;13.73;;;3.00;;
75499;SDS011;64076;51.466;7.260;2023-05-17T05:53:42;15.70;;;2.90;;
75499;SDS011;64076;51.466;7.260;2023-05-17T05:56:08;14.30;;;2.77;;
75499;SDS011;64076;51.466;7.260;2023-05-17T05:58:33;9.83;;;2.30;;
75499;SDS011;64076;51.466;7.260;2023-05-17T06:00:59;8.13;;;2.47;;
75499;SDS011;64076;51.466;7.260;2023-05-17T06:03:25;41.33;;;4.07;;
75499;SDS011;64076;51.466;7.260;2023-05-17T06:05:50;10.38;;;2.20;;
75499;SDS011;64076;51.466;7.260;2023-05-17T06:08:16;9.07;;;2.30;;
75499;SDS011;64076;51.466;7.260;2023-05-17T06:10:41;7.97;;;2.20;;
75499;SDS011;64076;51.466;7.260;2023-05-17T06:13:07;6.57;;;2.70;;
75499;SDS011;64076;51.466;7.260;2023-05-17T06:15:32;9.33;;;2.30;;
75499;SDS011;64076;51.466;7.260;2023-05-17T06:17:58;8.95;;;2.22;;
75499;SDS011;64076;51.466;7.260;2023-05-17T06:20:24;9.37;;;3.67;;
75499;SDS011;64076;51.466;7.260;2023-05-17T06:22:49;6.72;;;2.38;;
75499;SDS011;64076;51.466;7.260;2023-05-17T06:25:15;7.67;;;2.70;;
75499;SDS011;64076;51.466;7.260;2023-05-17T06:27:40;7.00;;;2.57;;
75499;SDS011;64076;51.466;7.260;2023-05-17T06:30:06;5.60;;;2.17;;
75499;SDS011;64076;51.466;7.260;2023-05-17T06:32:33;9.05;;;3.03;;
75499;SDS011;64076;51.466;7.260;2023-05-17T06:34:59;8.30;;;2.90;;
75499;SDS011;64076;51.466;7.260;2023-05-17T06:37:24;5.68;;;2.55;;
75499;SDS011;64076;51.466;7.260;2023-05-17T06:39:50;5.27;;;2.50;;
75499;SDS011;64076;51.466;7.260;2023-05-17T06:42:16;9.45;;;2.90;;
75499;SDS011;64076;51.466;7.260;2023-05-17T06:44:42;7.68;;;2.70;;
75499;SDS011;64076;51.466;7.260;2023-05-17T06:47:07;7.77;;;3.10;;
75499;SDS011;64076;51.466;7.260;2023-05-17T06:49:33;9.97;;;3.30;;
75499;SDS011;64076;51.466;7.260;2023-05-17T06:51:58;10.00;;;2.17;;
75499;SDS011;64076;51.466;7.260;2023-05-17T06:54:27;10.03;;;2.27;;
75499;SDS011;64076;51.466;7.260;2023-05-17T06:56:54;10.45;;;3.63;;
75499;SDS011;64076;51.466;7.260;2023-05-17T06:59:23;9.93;;;4.47;;
75499;SDS011;64076;51.466;7.260;2023-05-17T07:01:49;31.93;;;18.23;;
75499;SDS011;64076;51.466;7.260;2023-05-17T07:04:14;12.40;;;6.28;;
75499;SDS011;64076;51.466;7.260;2023-05-17T07:06:40;10.70;;;4.17;;
75499;SDS011;64076;51.466;7.260;2023-05-17T07:09:05;9.73;;;3.20;;
75499;SDS011;64076;51.466;7.260;2023-05-17T07:11:32;11.32;;;3.10;;
75499;SDS011;64076;51.466;7.260;2023-05-17T07:13:57;10.43;;;2.72;;
75499;SDS011;64076;51.466;7.260;2023-05-17T07:16:31;7.80;;;2.58;;
75499;SDS011;64076;51.466;7.260;2023-05-17T07:19:19;5.87;;;2.60;;
75499;SDS011;64076;51.466;7.260;2023-05-17T07:21:50;7.40;;;2.42;;
75499;SDS011;64076;51.466;7.260;2023-05-17T07:24:15;9.90;;;2.38;;
75499;SDS011;64076;51.466;7.260;2023-05-17T07:26:41;9.47;;;2.40;;
75499;SDS011;64076;51.466;7.260;2023-05-17T07:29:09;4.50;;;1.77;;
75499;SDS011;64076;51.466;7.260;2023-05-17T07:31:38;9.00;;;2.00;;
75499;SDS011;64076;51.466;7.260;2023-05-17T07:34:06;10.80;;;2.77;;
75499;SDS011;64076;51.466;7.260;2023-05-17T07:36:44;10.90;;;2.38;;
75499;SDS011;64076;51.466;7.260;2023-05-17T07:39:50;8.23;;;2.15;;
75499;SDS011;64076;51.466;7.260;2023-05-17T07:42:15;9.07;;;1.73;;
75499;SDS011;64076;51.466;7.260;2023-05-17T07:44:41;7.63;;;1.75;;
75499;SDS011;64076;51.466;7.260;2023-05-17T07:47:06;10.23;;;2.43;;
75499;SDS011;64076;51.466;7.260;2023-05-17T07:49:32;10.00;;;1.97;;
75499;SDS011;64076;51.466;7.260;2023-05-17T07:51:57;8.07;;;2.72;;
75499;SDS011;64076;51.466;7.260;2023-05-17T07:54:24;7.00;;;2.17;;
75499;SDS011;64076;51.466;7.260;2023-05-17T07:56:53;11.45;;;4.97;;
75499;SDS011;64076;51.466;7.260;2023-05-17T07:59:22;5.28;;;1.88;;
75499;SDS011;64076;51.466;7.260;2023-05-17T08:01:48;6.67;;;1.90;;
75499;SDS011;64076;51.466;7.260;2023-05-17T08:04:14;7.45;;;2.22;;
75499;SDS011;64076;51.466;7.260;2023-05-17T08:06:41;7.28;;;2.15;;
75499;SDS011;64076;51.466;7.260;2023-05-17T08:09:07;7.15;;;1.73;;
75499;SDS011;64076;51.466;7.260;2023-05-17T08:11:32;7.83;;;2.00;;
75499;SDS011;64076;51.466;7.260;2023-05-17T08:13:59;5.70;;;1.70;;
75499;SDS011;64076;51.466;7.260;2023-05-17T08:16:29;7.57;;;3.25;;
75499;SDS011;64076;51.466;7.260;2023-05-17T08:18:58;15.93;;;8.83;;
75499;SDS011;64076;51.466;7.260;2023-05-17T08:21:26;7.68;;;3.17;;
75499;SDS011;64076;51.466;7.260;2023-05-17T08:23:51;8.98;;;2.20;;
75499;SDS011;64076;51.466;7.260;2023-05-17T08:26:33;4.47;;;1.80;;
75499;SDS011;64076;51.466;7.260;2023-05-17T08:29:09;5.82;;;1.90;;
75499;SDS011;64076;51.466;7.260;2023-05-17T08:31:38;5.63;;;1.90;;
75499;SDS011;64076;51.466;7.260;2023-05-17T08:34:09;6.28;;;1.70;;
75499;SDS011;64076;51.466;7.260;2023-05-17T08:36:35;4.73;;;1.43;;
75499;SDS011;64076;51.466;7.260;2023-05-17T08:39:04;6.70;;;1.67;;
75499;SDS011;64076;51.466;7.260;2023-05-17T08:41:35;7.68;;;1.48;;
75499;SDS011;64076;51.466;7.260;2023-05-17T08:44:28;5.28;;;1.38;;
75499;SDS011;64076;51.466;7.260;2023-05-17T08:47:21;5.60;;;1.53;;
75499;SDS011;64076;51.466;7.260;2023-05-17T08:50:03;5.90;;;1.40;;
75499;SDS011;64076;51.466;7.260;2023-05-17T08:52:31;5.03;;;1.17;;
75499;SDS011;64076;51.466;7.260;2023-05-17T08:54:57;4.13;;;1.30;;
75499;SDS011;64076;51.466;7.260;2023-05-17T08:57:32;4.30;;;1.23;;
75499;SDS011;64076;51.466;7.260;2023-05-17T09:00:03;5.43;;;1.55;;
75499;SDS011;64076;51.466;7.260;2023-05-17T09:02:39;13.07;;;5.20;;
75499;SDS011;64076;51.466;7.260;2023-05-17T09:05:09;11.48;;;4.88;;
75499;SDS011;64076;51.466;7.260;2023-05-17T09:07:38;6.03;;;2.72;;
75499;SDS011;64076;51.466;7.260;2023-05-17T09:10:07;11.73;;;2.33;;
75499;SDS011;64076;51.466;7.260;2023-05-17T09:12:35;7.20;;;2.03;;
75499;SDS011;64076;51.466;7.260;2023-05-17T09:15:15;7.30;;;2.20;;
75499;SDS011;64076;51.466;7.260;2023-05-17T09:17:42;8.80;;;1.90;;
75499;SDS011;64076;51.466;7.260;2023-05-17T09:20:08;8.47;;;1.83;;
75499;SDS011;64076;51.466;7.260;2023-05-17T09:22:35;8.48;;;1.58;;
75499;SDS011;64076;51.466;7.260;2023-05-17T09:25:01;5.90;;;2.00;;
75499;SDS011;64076;51.466;7.260;2023-05-17T09:27:29;9.80;;;1.58;;
75499;SDS011;64076;51.466;7.260;2023-05-17T09:29:58;4.97;;;1.50;;
75499;SDS011;64076;51.466;7.260;2023-05-17T09:32:26;6.30;;;1.37;;
75499;SDS011;64076;51.466;7.260;2023-05-17T09:34:52;5.57;;;1.50;;
75499;SDS011;64076;51.466;7.260;2023-05-17T09:37:23;7.28;;;1.55;;
75499;SDS011;64076;51.466;7.260;2023-05-17T09:39:51;6.83;;;1.50;;
75499;SDS011;64076;51.466;7.260;2023-05-17T09:42:21;12.80;;;2.75;;
75499;SDS011;64076;51.466;7.260;2023-05-17T09:44:56;8.35;;;2.47;;
75499;SDS011;64076;51.466;7.260;2023-05-17T09:47:22;14.00;;;2.30;;
75499;SDS011;64076;51.466;7.260;2023-05-17T09:49:53;6.57;;;1.73;;
75499;SDS011;64076;51.466;7.260;2023-05-17T09:52:25;7.30;;;1.53;;
75499;SDS011;64076;51.466;7.260;2023-05-17T09:55:00;9.93;;;1.50;;
75499;SDS011;64076;51.466;7.260;2023-05-17T09:57:36;6.28;;;1.90;;
75499;SDS011;64076;51.466;7.260;2023-05-17T10:00:05;4.43;;;1.50;;
75499;SDS011;64076;51.466;7.260;2023-05-17T10:02:35;3.72;;;1.17;;
75499;SDS011;64076;51.466;7.260;2023-05-17T10:05:07;4.10;;;1.33;;
75499;SDS011;64076;51.466;7.260;2023-05-17T10:07:35;6.40;;;1.50;;
75499;SDS011;64076;51.466;7.260;2023-05-17T10:10:02;5.28;;;1.77;;
75499;SDS011;64076;51.466;7.260;2023-05-17T10:12:29;5.35;;;1.67;;
75499;SDS011;64076;51.466;7.260;2023-05-17T10:15:00;4.07;;;1.48;;
75499;SDS011;64076;51.466;7.260;2023-05-17T10:17:26;4.57;;;2.00;;
75499;SDS011;64076;51.466;7.260;2023-05-17T10:19:55;4.85;;;1.92;;
75499;SDS011;64076;51.466;7.260;2023-05-17T10:22:21;3.80;;;1.65;;
75499;SDS011;64076;51.466;7.260;2023-05-17T10:24:47;6.68;;;2.20;;
75499;SDS011;64076;51.466;7.260;2023-05-17T10:27:16;4.93;;;1.70;;
75499;SDS011;64076;51.466;7.260;2023-05-17T10:29:45;4.00;;;1.70;;
75499;SDS011;64076;51.466;7.260;2023-05-17T10:32:14;4.80;;;1.77;;
75499;SDS011;64076;51.466;7.260;2023-05-17T10:34:45;3.67;;;1.83;;
75499;SDS011;64076;51.466;7.260;2023-05-17T10:37:14;2.67;;;1.40;;
75499;SDS011;64076;51.466;7.260;2023-05-17T10:39:43;4.70;;;1.33;;
75499;SDS011;64076;51.466;7.260;2023-05-17T10:42:11;5.72;;;1.63;;
75499;SDS011;64076;51.466;7.260;2023-05-17T10:44:39;4.10;;;1.50;;
75499;SDS011;64076;51.466;7.260;2023-05-17T10:47:04;4.13;;;1.50;;
75499;SDS011;64076;51.466;7.260;2023-05-17T10:49:33;3.78;;;1.50;;
75499;SDS011;64076;51.466;7.260;2023-05-17T10:52:17;3.90;;;1.30;;
75499;SDS011;64076;51.466;7.260;2023-05-17T10:54:55;2.55;;;1.40;;
75499;SDS011;64076;51.466;7.260;2023-05-17T10:57:32;3.50;;;1.20;;
75499;SDS011;64076;51.466;7.260;2023-05-17T10:59:59;2.23;;;1.10;;
75499;SDS011;64076;51.466;7.260;2023-05-17T11:02:29;4.07;;;1.45;;
75499;SDS011;64076;51.466;7.260;2023-05-17T11:04:55;3.00;;;1.05;;
75499;SDS011;64076;51.466;7.260;2023-05-17T11:07:22;2.80;;;1.25;;
75499;SDS011;64076;51.466;7.260;2023-05-17T11:10:20;2.80;;;1.40;;
75499;SDS011;64076;51.466;7.260;2023-05-17T11:12:58;4.28;;;1.25;;
75499;SDS011;64076;51.466;7.260;2023-05-17T11:15:39;3.75;;;1.30;;
75499;SDS011;64076;51.466;7.260;2023-05-17T11:18:07;2.85;;;1.55;;
75499;SDS011;64076;51.466;7.260;2023-05-17T11:20:35;4.15;;;2.03;;
75499;SDS011;64076;51.466;7.260;2023-05-17T11:23:21;6.50;;;2.07;;
75499;SDS011;64076;51.466;7.260;2023-05-17T11:26:08;4.57;;;1.63;;
75499;SDS011;64076;51.466;7.260;2023-05-17T11:28:40;5.13;;;1.63;;
75499;SDS011;64076;51.466;7.260;2023-05-17T11:31:06;3.95;;;1.58;;
75499;SDS011;64076;51.466;7.260;2023-05-17T11:33:38;2.73;;;1.30;;
75499;SDS011;64076;51.466;7.260;2023-05-17T11:36:19;5.15;;;1.42;;
75499;SDS011;64076;51.466;7.260;2023-05-17T11:39:09;4.53;;;1.50;;
75499;SDS011;64076;51.466;7.260;2023-05-17T11:41:38;3.83;;;1.40;;
75499;SDS011;64076;51.466;7.260;2023-05-17T11:44:17;3.05;;;1.50;;
75499;SDS011;64076;51.466;7.260;2023-05-17T11:47:03;2.80;;;1.40;;
75499;SDS011;64076;51.466;7.260;2023-05-17T11:49:36;3.17;;;1.50;;
75499;SDS011;64076;51.466;7.260;2023-05-17T11:52:05;3.95;;;1.30;;
75499;SDS011;64076;51.466;7.260;2023-05-17T11:54:34;2.30;;;1.20;;
75499;SDS011;64076;51.466;7.260;2023-05-17T11:57:06;3.28;;;1.20;;
75499;SDS011;64076;51.466;7.260;2023-05-17T11:59:36;3.03;;;1.23;;
75499;SDS011;64076;51.466;7.260;2023-05-17T12:02:06;3.25;;;1.27;;
75499;SDS011;64076;51.466;7.260;2023-05-17T12:04:37;4.30;;;1.33;;
75499;SDS011;64076;51.466;7.260;2023-05-17T12:07:11;3.80;;;1.40;;
75499;SDS011;64076;51.466;7.260;2023-05-17T12:09:43;2.63;;;1.35;;
75499;SDS011;64076;51.466;7.260;2023-05-17T12:12:16;2.87;;;1.23;;
75499;SDS011;64076;51.466;7.260;2023-05-17T12:14:47;4.25;;;1.27;;
75499;SDS011;64076;51.466;7.260;2023-05-17T12:17:28;2.58;;;1.40;;
75499;SDS011;64076;51.466;7.260;2023-05-17T12:20:05;2.17;;;1.33;;
75499;SDS011;64076;51.466;7.260;2023-05-17T12:22:34;2.13;;;1.10;;
75499;SDS011;64076;51.466;7.260;2023-05-17T12:25:19;2.90;;;1.20;;
75499;SDS011;64076;51.466;7.260;2023-05-17T12:27:50;4.22;;;1.30;;
75499;SDS011;64076;51.466;7.260;2023-05-17T12:30:18;1.83;;;1.10;;
75499;SDS011;64076;51.466;7.260;2023-05-17T12:32:44;1.70;;;0.90;;
75499;SDS011;64076;51.466;7.260;2023-05-17T12:35:12;3.30;;;1.10;;
75499;SDS011;64076;51.466;7.260;2023-05-17T12:37:40;3.23;;;1.00;;
75499;SDS011;64076;51.466;7.260;2023-05-17T12:40:07;3.00;;;1.02;;
75499;SDS011;64076;51.466;7.260;2023-05-17T12:42:35;3.90;;;1.20;;
75499;SDS011;64076;51.466;7.260;2023-05-17T12:45:04;4.57;;;1.52;;
75499;SDS011;64076;51.466;7.260;2023-05-17T12:47:32;6.93;;;2.38;;
75499;SDS011;64076;51.466;7.260;2023-05-17T12:50:01;5.33;;;1.70;;
75499;SDS011;64076;51.466;7.260;2023-05-17T12:52:32;3.03;;;1.30;;
75499;SDS011;64076;51.466;7.260;2023-05-17T12:55:04;2.85;;;1.30;;
75499;SDS011;64076;51.466;7.260;2023-05-17T12:57:30;7.22;;;1.67;;
75499;SDS011;64076;51.466;7.260;2023-05-17T12:59:58;6.55;;;1.42;;
75499;SDS011;64076;51.466;7.260;2023-05-17T13:02:39;6.67;;;1.60;;
75499;SDS011;64076;51.466;7.260;2023-05-17T13:05:15;4.07;;;1.55;;
75499;SDS011;64076;51.466;7.260;2023-05-17T13:07:42;3.15;;;1.48;;
75499;SDS011;64076;51.466;7.260;2023-05-17T13:10:22;3.97;;;1.55;;
75499;SDS011;64076;51.466;7.260;2023-05-17T13:12:56;3.90;;;1.52;;
75499;SDS011;64076;51.466;7.260;2023-05-17T13:15:32;4.20;;;1.27;;
75499;SDS011;64076;51.466;7.260;2023-05-17T13:17:58;2.80;;;1.25;;
75499;SDS011;64076;51.466;7.260;2023-05-17T13:20:25;2.72;;;1.55;;
75499;SDS011;64076;51.466;7.260;2023-05-17T13:22:51;2.40;;;1.20;;
75499;SDS011;64076;51.466;7.260;2023-05-17T13:25:32;4.13;;;1.50;;
75499;SDS011;64076;51.466;7.260;2023-05-17T13:27:58;4.07;;;1.40;;
75499;SDS011;64076;51.466;7.260;2023-05-17T13:30:24;5.18;;;1.17;;
75499;SDS011;64076;51.466;7.260;2023-05-17T13:32:52;3.23;;;1.50;;
75499;SDS011;64076;51.466;7.260;2023-05-17T13:35:20;5.75;;;1.30;;
75499;SDS011;64076;51.466;7.260;2023-05-17T13:37:46;6.10;;;1.48;;
75499;SDS011;64076;51.466;7.260;2023-05-17T13:40:12;3.80;;;1.10;;
75499;SDS011;64076;51.466;7.260;2023-05-17T13:42:38;2.17;;;1.05;;
75499;SDS011;64076;51.466;7.260;2023-05-17T13:45:06;2.45;;;1.13;;
75499;SDS011;64076;51.466;7.260;2023-05-17T13:47:35;3.00;;;1.30;;
75499;SDS011;64076;51.466;7.260;2023-05-17T13:50:02;2.10;;;1.00;;
75499;SDS011;64076;51.466;7.260;2023-05-17T13:52:28;2.13;;;1.02;;
75499;SDS011;64076;51.466;7.260;2023-05-17T13:54:55;3.47;;;1.08;;
75499;SDS011;64076;51.466;7.260;2023-05-17T13:57:21;2.43;;;1.03;;
75499;SDS011;64076;51.466;7.260;2023-05-17T13:59:47;3.25;;;1.05;;
75499;SDS011;64076;51.466;7.260;2023-05-17T14:02:13;2.43;;;1.03;;
75499;SDS011;64076;51.466;7.260;2023-05-17T14:04:39;2.63;;;0.90;;
75499;SDS011;64076;51.466;7.260;2023-05-17T14:07:04;3.17;;;1.20;;
75499;SDS011;64076;51.466;7.260;2023-05-17T14:09:30;2.90;;;1.00;;
75499;SDS011;64076;51.466;7.260;2023-05-17T14:11:58;5.00;;;1.10;;
75499;SDS011;64076;51.466;7.260;2023-05-17T14:14:27;2.08;;;1.20;;
75499;SDS011;64076;51.466;7.260;2023-05-17T14:16:53;2.13;;;1.00;;
75499;SDS011;64076;51.466;7.260;2023-05-17T14:19:19;2.60;;;1.10;;
75499;SDS011;64076;51.466;7.260;2023-05-17T14:21:47;1.90;;;0.90;;
75499;SDS011;64076;51.466;7.260;2023-05-17T14:24:14;2.70;;;1.20;;
75499;SDS011;64076;51.466;7.260;2023-05-17T14:26:40;3.13;;;1.15;;
75499;SDS011;64076;51.466;7.260;2023-05-17T14:29:06;2.75;;;1.02;;
75499;SDS011;64076;51.466;7.260;2023-05-17T14:31:31;2.60;;;0.97;;
75499;SDS011;64076;51.466;7.260;2023-05-17T14:33:59;3.50;;;0.82;;
75499;SDS011;64076;51.466;7.260;2023-05-17T14:36:27;2.88;;;1.20;;
75499;SDS011;64076;51.466;7.260;2023-05-17T14:38:53;3.43;;;1.10;;
75499;SDS011;64076;51.466;7.260;2023-05-17T14:41:19;1.95;;;0.93;;
75499;SDS011;64076;51.466;7.260;2023-05-17T14:43:45;3.80;;;0.90;;
75499;SDS011;64076;51.466;7.260;2023-05-17T14:46:11;1.42;;;0.70;;
75499;SDS011;64076;51.466;7.260;2023-05-17T14:48:38;2.83;;;0.82;;
75499;SDS011;64076;51.466;7.260;2023-05-17T14:51:04;2.83;;;0.93;;
75499;SDS011;64076;51.466;7.260;2023-05-17T14:53:30;1.60;;;0.80;;
75499;SDS011;64076;51.466;7.260;2023-05-17T14:55:55;2.45;;;1.00;;
75499;SDS011;64076;51.466;7.260;2023-05-17T14:58:21;1.87;;;0.87;;
75499;SDS011;64076;51.466;7.260;2023-05-17T15:00:47;3.03;;;1.00;;
75499;SDS011;64076;51.466;7.260;2023-05-17T15:03:15;2.55;;;0.90;;